Time;durP1;ratioP1;P1;durP2;ratioP2;P2;SDS_P1;SDS_P2;PMS_P1;PMS_P2;Temp;Humidity;BMP_temperature;BMP_pressure;BME280_temperature;BME280_humidity;BME280_pressure;Samples;Min_cycle;Max_cycle;Signal;HPM_P1;HPM_P2
2023/11/23 00:01:45;;;;;;;;;;;77.70;2227.20;;;;;;4991947;28;20037;-75
2023/11/23 00:04:10;;;;;;;;;;;77.60;2227.20;;;;;;4973902;28;19906;-76
2023/11/23 00:06:36;;;;;;;;;;;77.60;2227.20;;;;;;4974650;28;20008;-75
2023/11/23 00:09:05;;;;;;;;;;;77.50;2227.20;;;;;;4972584;28;20312;-75
2023/11/23 00:11:30;;;;;;;;;;;77.60;2227.20;;;;;;4968456;28;19906;-75
2023/11/23 00:13:56;;;;;;;;;;;77.70;2227.20;;;;;;4986156;28;19913;-75
2023/11/23 00:16:22;;;;;;;;;;;77.70;2227.20;;;;;;4966689;28;19912;-75
2023/11/23 00:18:47;;;;;;;;;;;77.70;2227.20;;;;;;4983187;28;19913;-76
2023/11/23 00:21:13;;;;;;;;;;;77.70;2227.20;;;;;;4987413;28;19917;-75
2023/11/23 00:23:38;;;;;;;;;;;102.40;2227.20;;;;;;4977242;28;19996;-75
2023/11/23 00:26:04;;;;;;;;;;;77.70;2227.20;;;;;;4970901;28;19927;-75
2023/11/23 00:28:30;;;;;;;;;;;77.70;2227.20;;;;;;4989906;28;20418;-75
2023/11/23 00:30:56;;;;;;;;;;;77.70;2227.20;;;;;;4994218;28;19905;-75
2023/11/23 00:33:21;;;;;;;;;;;102.40;2227.20;;;;;;4979685;28;19948;-76
2023/11/23 00:35:47;;;;;;;;;;;102.40;2227.20;;;;;;4976446;28;19906;-75
2023/11/23 00:38:18;;;;;;;;;;;102.40;2227.20;;;;;;4973246;28;19909;-75
2023/11/23 00:40:44;;;;;;;;;;;77.70;2227.20;;;;;;4965846;28;20257;-75
2023/11/23 00:43:10;;;;;;;;;;;102.40;2227.20;;;;;;4989370;28;19925;-75
2023/11/23 00:45:37;;;;;;;;;;;77.70;2227.20;;;;;;4987672;28;19921;-74
2023/11/23 00:48:03;;;;;;;;;;;77.70;2227.20;;;;;;4984423;28;19929;-75
2023/11/23 00:50:28;;;;;;;;;;;102.70;2227.20;;;;;;4989042;28;20368;-75
2023/11/23 00:52:54;;;;;;;;;;;102.40;2227.20;;;;;;4988727;28;19920;-75
2023/11/23 00:55:20;;;;;;;;;;;102.40;2227.20;;;;;;4988783;28;19913;-75
2023/11/23 00:57:46;;;;;;;;;;;77.70;2227.20;;;;;;4989478;28;19989;-75
2023/11/23 01:00:16;;;;;;;;;;;77.60;2227.20;;;;;;4975615;28;20000;-75
2023/11/23 01:02:43;;;;;;;;;;;77.60;2227.20;;;;;;4991871;28;19909;-75
2023/11/23 01:05:11;;;;;;;;;;;77.50;2227.20;;;;;;4994833;28;19910;-75
2023/11/23 01:07:38;;;;;;;;;;;77.60;2227.20;;;;;;4986357;28;19905;-75
2023/11/23 01:10:05;;;;;;;;;;;77.60;2227.20;;;;;;4987673;28;19912;-75
2023/11/23 01:12:31;;;;;;;;;;;77.60;2227.20;;;;;;4984912;28;19906;-75
2023/11/23 01:14:57;;;;;;;;;;;77.60;2227.20;;;;;;4977161;28;20001;-75
2023/11/23 01:17:23;;;;;;;;;;;77.70;2227.20;;;;;;4984613;28;19960;-75
2023/11/23 01:19:48;;;;;;;;;;;102.40;2227.20;;;;;;4995881;28;19917;-75
2023/11/23 01:22:14;;;;;;;;;;;102.50;2227.20;;;;;;4978641;28;19983;-75
2023/11/23 01:24:39;;;;;;;;;;;102.50;2227.20;;;;;;4996144;28;19906;-75
2023/11/23 01:27:05;;;;;;;;;;;102.60;2227.20;;;;;;4979266;28;19951;-75
2023/11/23 01:29:31;;;;;;;;;;;102.80;2227.20;;;;;;4978708;28;20285;-75
2023/11/23 01:31:57;;;;;;;;;;;102.50;2227.20;;;;;;4996372;28;20044;-75
2023/11/23 01:34:23;;;;;;;;;;;102.50;2227.20;;;;;;4996206;28;19928;-75
2023/11/23 01:36:49;;;;;;;;;;;102.40;2227.20;;;;;;4996173;28;20332;-75
2023/11/23 01:39:15;;;;;;;;;;;102.40;2227.20;;;;;;4978471;28;19913;-75
2023/11/23 01:41:41;;;;;;;;;;;77.60;2227.20;;;;;;4978982;28;20015;-75
2023/11/23 01:44:07;;;;;;;;;;;77.70;2227.20;;;;;;4978467;28;20375;-76
2023/11/23 01:46:33;;;;;;;;;;;77.50;2227.20;;;;;;4996434;28;19997;-75
2023/11/23 01:48:59;;;;;;;;;;;77.50;2227.20;;;;;;4994396;28;20376;-76
2023/11/23 01:51:25;;;;;;;;;;;77.20;2227.20;;;;;;4978968;28;20373;-75
2023/11/23 01:53:52;;;;;;;;;;;77.40;2227.20;;;;;;4996127;28;19980;-76
2023/11/23 01:56:18;;;;;;;;;;;77.70;2227.20;;;;;;4978468;28;19931;-75
2023/11/23 01:58:44;;;;;;;;;;;77.50;2227.20;;;;;;4995540;28;19917;-76
2023/11/23 02:01:09;;;;;;;;;;;77.40;2227.20;;;;;;4978242;28;19905;-76
2023/11/23 02:03:36;;;;;;;;;;;77.50;2227.20;;;;;;4995422;28;19923;-76
2023/11/23 02:06:02;;;;;;;;;;;77.30;2227.20;;;;;;4995503;28;19905;-75
2023/11/23 02:08:28;;;;;;;;;;;77.30;2227.20;;;;;;4995368;28;19906;-75
2023/11/23 02:10:53;;;;;;;;;;;77.40;2227.20;;;;;;4995593;28;20282;-76
2023/11/23 02:13:19;;;;;;;;;;;77.40;2227.20;;;;;;4977274;28;20012;-75
2023/11/23 02:15:45;;;;;;;;;;;77.70;2227.20;;;;;;4977949;28;19913;-76
2023/11/23 02:18:11;;;;;;;;;;;77.60;2227.20;;;;;;4995354;28;20094;-76
2023/11/23 02:20:37;;;;;;;;;;;77.60;2227.20;;;;;;4994918;28;19924;-76
2023/11/23 02:23:03;;;;;;;;;;;77.70;2227.20;;;;;;4977681;28;19909;-75
2023/11/23 02:25:29;;;;;;;;;;;77.70;2227.20;;;;;;4977788;28;19909;-76
2023/11/23 02:27:55;;;;;;;;;;;77.60;2227.20;;;;;;4977433;28;19909;-75
2023/11/23 02:30:20;;;;;;;;;;;77.50;2227.20;;;;;;4977681;28;19906;-75
2023/11/23 02:32:47;;;;;;;;;;;77.50;2227.20;;;;;;4977158;28;19910;-76
2023/11/23 02:35:13;;;;;;;;;;;77.40;2227.20;;;;;;4994978;28;19910;-76
2023/11/23 02:37:40;;;;;;;;;;;77.20;2227.20;;;;;;4977231;28;19905;-76
2023/11/23 02:40:06;;;;;;;;;;;77.60;2227.20;;;;;;4977352;28;19940;-76
2023/11/23 02:42:32;;;;;;;;;;;77.70;2227.20;;;;;;4976991;28;19960;-76
2023/11/23 02:44:58;;;;;;;;;;;77.50;2227.20;;;;;;4977547;28;19905;-75
2023/11/23 02:47:24;;;;;;;;;;;77.40;2227.20;;;;;;4994791;28;19906;-76
2023/11/23 02:49:49;;;;;;;;;;;102.40;2227.20;;;;;;4977073;28;19909;-75
2023/11/23 02:52:15;;;;;;;;;;;102.50;2227.20;;;;;;4996376;28;19914;-76
2023/11/23 02:54:40;;;;;;;;;;;102.40;2227.20;;;;;;5005955;28;19933;-76
2023/11/23 02:57:06;;;;;;;;;;;102.50;2227.20;;;;;;4976939;28;19906;-76
2023/11/23 02:59:32;;;;;;;;;;;102.50;2227.20;;;;;;4994529;28;19921;-76
2023/11/23 03:01:57;;;;;;;;;;;102.50;2227.20;;;;;;4994852;28;19906;-75
2023/11/23 03:04:23;;;;;;;;;;;102.40;2227.20;;;;;;4994598;28;20000;-75
2023/11/23 03:06:48;;;;;;;;;;;77.70;2227.20;;;;;;4994167;28;20326;-75
2023/11/23 03:09:14;;;;;;;;;;;102.40;2227.20;;;;;;4994603;28;20022;-75
2023/11/23 03:11:40;;;;;;;;;;;102.40;2227.20;;;;;;4977041;28;19914;-75
2023/11/23 03:14:06;;;;;;;;;;;77.70;2227.20;;;;;;4994265;28;19906;-76
2023/11/23 03:16:32;;;;;;;;;;;102.50;2227.20;;;;;;4976673;28;19932;-75
2023/11/23 03:18:58;;;;;;;;;;;102.50;2227.20;;;;;;4976921;28;19968;-75
2023/11/23 03:21:24;;;;;;;;;;;102.50;2227.20;;;;;;4976335;28;20265;-76
2023/11/23 03:23:50;;;;;;;;;;;102.50;2227.20;;;;;;4977063;28;19910;-76
2023/11/23 03:26:16;;;;;;;;;;;102.40;2227.20;;;;;;4975733;28;19957;-76
2023/11/23 03:28:41;;;;;;;;;;;102.60;2227.20;;;;;;4994053;28;19906;-76
2023/11/23 03:31:07;;;;;;;;;;;102.50;2227.20;;;;;;4976561;28;19912;-76
2023/11/23 03:33:33;;;;;;;;;;;102.60;2227.20;;;;;;4976647;28;19906;-75
2023/11/23 03:35:59;;;;;;;;;;;102.70;2227.20;;;;;;4976368;28;19905;-75
2023/11/23 03:38:24;;;;;;;;;;;102.60;2227.20;;;;;;4976533;28;19910;-76
2023/11/23 03:40:50;;;;;;;;;;;102.50;2227.20;;;;;;4992797;28;20012;-75
2023/11/23 03:43:15;;;;;;;;;;;102.60;2227.20;;;;;;4976645;28;19988;-75
2023/11/23 03:45:41;;;;;;;;;;;102.70;2227.20;;;;;;4994111;28;19906;-75
2023/11/23 03:48:07;;;;;;;;;;;102.80;2227.20;;;;;;4993851;28;19906;-75
2023/11/23 03:50:33;;;;;;;;;;;102.70;2227.20;;;;;;4993838;28;20245;-75
2023/11/23 03:52:59;;;;;;;;;;;102.70;2227.20;;;;;;4976145;28;19916;-75
2023/11/23 03:55:24;;;;;;;;;;;102.70;2227.20;;;;;;4993891;28;19905;-76
2023/11/23 03:57:50;;;;;;;;;;;102.50;2227.20;;;;;;4993591;28;19906;-76
2023/11/23 04:00:16;;;;;;;;;;;102.40;2227.20;;;;;;4976247;28;20367;-76
2023/11/23 04:02:46;;;;;;;;;;;102.50;2227.20;;;;;;4976270;28;20375;-76
2023/11/23 04:05:14;;;;;;;;;;;77.70;2227.20;;;;;;4993680;28;19952;-76
2023/11/23 04:07:40;;;;;;;;;;;77.70;2227.20;;;;;;4993674;28;19913;-76
2023/11/23 04:10:07;;;;;;;;;;;77.60;2227.20;;;;;;4993675;28;19928;-76
2023/11/23 04:12:32;;;;;;;;;;;77.50;2227.20;;;;;;4993719;28;19913;-75
2023/11/23 04:14:58;;;;;;;;;;;77.60;2227.20;;;;;;4976218;28;19906;-76
2023/11/23 04:17:23;;;;;;;;;;;77.60;2227.20;;;;;;4993805;28;19953;-75
2023/11/23 04:19:49;;;;;;;;;;;77.60;2227.20;;;;;;4993465;28;19918;-76
2023/11/23 04:22:14;;;;;;;;;;;77.50;2227.20;;;;;;4993400;28;20299;-75
2023/11/23 04:24:41;;;;;;;;;;;77.50;2227.20;;;;;;4975560;28;19906;-76
2023/11/23 04:27:07;;;;;;;;;;;77.70;2227.20;;;;;;4993709;28;20311;-76
2023/11/23 04:29:32;;;;;;;;;;;77.70;2227.20;;;;;;4993479;28;19905;-76
2023/11/23 04:31:58;;;;;;;;;;;77.70;2227.20;;;;;;4976102;28;19906;-75
2023/11/23 04:34:23;;;;;;;;;;;77.70;2227.20;;;;;;4976061;28;20004;-76
2023/11/23 04:36:49;;;;;;;;;;;77.70;2227.20;;;;;;4976851;28;19905;-75
2023/11/23 04:39:15;;;;;;;;;;;77.70;2227.20;;;;;;4979689;28;20356;-75
2023/11/23 04:41:40;;;;;;;;;;;77.60;2227.20;;;;;;4997308;28;19913;-75
2023/11/23 04:44:06;;;;;;;;;;;77.50;2227.20;;;;;;4979708;28;20237;-75
2023/11/23 04:46:32;;;;;;;;;;;77.50;2227.20;;;;;;4997504;28;19935;-76
2023/11/23 04:48:57;;;;;;;;;;;77.60;2227.20;;;;;;4997052;28;19905;-75
2023/11/23 04:51:23;;;;;;;;;;;77.40;2227.20;;;;;;4996848;28;19968;-75
2023/11/23 04:53:49;;;;;;;;;;;77.60;2227.20;;;;;;4996843;28;19995;-75
2023/11/23 04:56:15;;;;;;;;;;;77.60;2227.20;;;;;;4979607;28;19910;-76
2023/11/23 04:58:41;;;;;;;;;;;77.50;2227.20;;;;;;4996829;28;19909;-75
2023/11/23 05:01:07;;;;;;;;;;;77.50;2227.20;;;;;;4996843;28;19956;-76
2023/11/23 05:03:33;;;;;;;;;;;77.70;2227.20;;;;;;4979196;28;19913;-75
2023/11/23 05:05:59;;;;;;;;;;;102.50;2227.20;;;;;;4996607;28;19909;-75
2023/11/23 05:08:24;;;;;;;;;;;102.60;2227.20;;;;;;4996882;28;20375;-75
2023/11/23 05:10:50;;;;;;;;;;;102.80;2227.20;;;;;;4996553;28;19952;-76
2023/11/23 05:13:16;;;;;;;;;;;103.00;2227.20;;;;;;4996388;28;19948;-76
2023/11/23 05:15:41;;;;;;;;;;;103.10;2227.20;;;;;;4996558;28;20384;-76
2023/11/23 05:18:07;;;;;;;;;;;103.20;2227.20;;;;;;4996219;28;19906;-75
2023/11/23 05:20:35;;;;;;;;;;;103.30;2227.20;;;;;;4978782;28;19925;-75
2023/11/23 05:23:01;;;;;;;;;;;103.30;2227.20;;;;;;4992016;28;19956;-75
2023/11/23 05:25:26;;;;;;;;;;;103.30;2227.20;;;;;;4989542;28;19905;-74
2023/11/23 05:27:52;;;;;;;;;;;103.30;2227.20;;;;;;4982445;28;19905;-75
2023/11/23 05:30:18;;;;;;;;;;;128.00;2252.80;;;;;;4986251;28;20267;-75
2023/11/23 05:32:45;;;;;;;;;;;128.00;2252.80;;;;;;4961797;28;19906;-75
2023/11/23 05:35:11;;;;;;;;;;;128.20;2252.80;;;;;;4976872;28;19906;-75
2023/11/23 05:37:37;;;;;;;;;;;128.20;2252.80;;;;;;4990962;28;19944;-75
2023/11/23 05:40:03;;;;;;;;;;;128.20;2252.80;;;;;;4990857;28;20344;-75
2023/11/23 05:42:30;;;;;;;;;;;128.00;2252.80;;;;;;4965665;28;19906;-75
2023/11/23 05:44:55;;;;;;;;;;;128.20;2252.80;;;;;;4989814;28;20283;-75
2023/11/23 05:47:21;;;;;;;;;;;128.10;2252.80;;;;;;4989742;28;19916;-75
2023/11/23 05:49:46;;;;;;;;;;;128.00;2252.80;;;;;;4972028;28;19957;-75
2023/11/23 05:52:12;;;;;;;;;;;128.00;2252.80;;;;;;4973828;28;19921;-75
2023/11/23 05:54:38;;;;;;;;;;;128.10;2252.80;;;;;;4986110;28;20323;-75
2023/11/23 05:57:04;;;;;;;;;;;128.00;2252.80;;;;;;4972801;28;19906;-76
2023/11/23 05:59:30;;;;;;;;;;;128.00;2252.80;;;;;;4986388;28;19925;-75
2023/11/23 06:01:55;;;;;;;;;;;103.10;2227.20;;;;;;4990791;28;19996;-75
2023/11/23 06:04:21;;;;;;;;;;;103.30;2227.20;;;;;;4974921;28;19996;-75
2023/11/23 06:06:46;;;;;;;;;;;103.20;2227.20;;;;;;4989077;28;20344;-75
2023/11/23 06:09:12;;;;;;;;;;;103.20;2227.20;;;;;;4988171;28;19914;-75
2023/11/23 06:11:38;;;;;;;;;;;103.10;2227.20;;;;;;4989122;28;19905;-75
2023/11/23 06:14:04;;;;;;;;;;;103.10;2227.20;;;;;;4977825;28;19905;-75
2023/11/23 06:16:29;;;;;;;;;;;103.00;2227.20;;;;;;4977130;28;19905;-75
2023/11/23 06:18:55;;;;;;;;;;;103.00;2227.20;;;;;;4990976;28;19924;-75
2023/11/23 06:21:21;;;;;;;;;;;103.10;2227.20;;;;;;4990523;28;19944;-74
2023/11/23 06:23:47;;;;;;;;;;;103.20;2227.20;;;;;;4989610;28;19987;-75
2023/11/23 06:26:13;;;;;;;;;;;103.10;2227.20;;;;;;4966286;28;19905;-75
2023/11/23 06:28:39;;;;;;;;;;;103.10;2227.20;;;;;;4988861;28;19912;-75
2023/11/23 06:31:04;;;;;;;;;;;103.10;2227.20;;;;;;4990155;28;20203;-75
2023/11/23 06:33:30;;;;;;;;;;;103.00;2227.20;;;;;;4986165;28;19914;-75
2023/11/23 06:35:56;;;;;;;;;;;103.00;2227.20;;;;;;4974452;28;19921;-75
2023/11/23 06:38:23;;;;;;;;;;;103.00;2227.20;;;;;;4974440;28;20290;-75
2023/11/23 06:40:50;;;;;;;;;;;103.00;2227.20;;;;;;4991042;28;19918;-75
2023/11/23 06:43:15;;;;;;;;;;;103.00;2227.20;;;;;;4984913;28;20307;-75
2023/11/23 06:45:41;;;;;;;;;;;103.10;2227.20;;;;;;4990433;28;19913;-78
2023/11/23 06:48:06;;;;;;;;;;;103.20;2227.20;;;;;;4989668;28;19906;-77
2023/11/23 06:50:32;;;;;;;;;;;103.30;2227.20;;;;;;4989227;28;19917;-79
2023/11/23 06:52:58;;;;;;;;;;;103.30;2227.20;;;;;;4976702;28;20284;-80
2023/11/23 06:55:24;;;;;;;;;;;103.30;2227.20;;;;;;4991150;28;19941;-77
2023/11/23 06:57:50;;;;;;;;;;;128.00;2252.80;;;;;;4955754;28;19993;-78
2023/11/23 07:00:22;;;;;;;;;;;103.30;2227.20;;;;;;4975299;28;19914;-79
2023/11/23 07:02:49;;;;;;;;;;;103.30;2227.20;;;;;;4991072;28;19914;-78
2023/11/23 07:05:15;;;;;;;;;;;128.20;2252.80;;;;;;4973443;28;20335;-78
2023/11/23 07:07:43;;;;;;;;;;;128.20;2252.80;;;;;;4977184;28;19914;-78
2023/11/23 07:10:09;;;;;;;;;;;128.20;2252.80;;;;;;4989995;28;20363;-78
2023/11/23 07:12:35;;;;;;;;;;;128.20;2252.80;;;;;;4968817;28;19956;-78
2023/11/23 07:15:00;;;;;;;;;;;128.30;2252.80;;;;;;4969791;28;19907;-77
2023/11/23 07:17:26;;;;;;;;;;;128.20;2252.80;;;;;;4974820;28;20382;-76
2023/11/23 07:19:52;;;;;;;;;;;128.40;2252.80;;;;;;4987003;28;19925;-76
2023/11/23 07:22:17;;;;;;;;;;;128.30;2252.80;;;;;;4992538;28;19917;-75
2023/11/23 07:24:43;;;;;;;;;;;128.30;2252.80;;;;;;4992178;28;20283;-76
2023/11/23 07:27:08;;;;;;;;;;;128.30;2252.80;;;;;;4977191;28;19906;-76
2023/11/23 07:29:34;;;;;;;;;;;128.20;2252.80;;;;;;4986598;28;19937;-76
2023/11/23 07:32:00;;;;;;;;;;;128.40;2252.80;;;;;;4972728;28;19913;-76
2023/11/23 07:34:26;;;;;;;;;;;128.40;2252.80;;;;;;4967442;28;19905;-77
2023/11/23 07:36:51;;;;;;;;;;;128.40;2252.80;;;;;;4981990;28;20353;-76
2023/11/23 07:39:17;;;;;;;;;;;128.50;2252.80;;;;;;4991264;28;19914;-77
2023/11/23 07:41:42;;;;;;;;;;;128.40;2252.80;;;;;;4968967;28;19961;-78
2023/11/23 07:44:08;;;;;;;;;;;128.60;2252.80;;;;;;4984626;28;19934;-79
2023/11/23 07:46:35;;;;;;;;;;;128.60;2252.80;;;;;;4990982;28;19993;-77
2023/11/23 07:49:01;;;;;;;;;;;128.70;2252.80;;;;;;4975261;28;19910;-78
2023/11/23 07:51:26;;;;;;;;;;;128.40;2252.80;;;;;;4973612;28;20437;-78
2023/11/23 07:53:52;;;;;;;;;;;128.30;2252.80;;;;;;4966802;28;19910;-79
2023/11/23 07:56:17;;;;;;;;;;;128.50;2252.80;;;;;;4972848;28;19906;-81
2023/11/23 07:58:45;;;;;;;;;;;128.50;2252.80;;;;;;4975518;28;19909;-77
2023/11/23 08:01:10;;;;;;;;;;;128.60;2252.80;;;;;;4976009;28;19956;-78
2023/11/23 08:03:36;;;;;;;;;;;128.70;2252.80;;;;;;4987760;28;20383;-77
2023/11/23 08:06:01;;;;;;;;;;;128.70;2252.80;;;;;;4964743;28;20268;-75
2023/11/23 08:08:27;;;;;;;;;;;128.80;2252.80;;;;;;4968343;28;20005;-76
2023/11/23 08:10:53;;;;;;;;;;;128.80;2252.80;;;;;;4967902;28;19913;-76
2023/11/23 08:13:20;;;;;;;;;;;128.90;2252.80;;;;;;4994259;28;19985;-76
2023/11/23 08:15:46;;;;;;;;;;;128.80;2252.80;;;;;;4992789;28;19909;-76
2023/11/23 08:18:12;;;;;;;;;;;128.90;2252.80;;;;;;4994858;28;20288;-75
2023/11/23 08:20:37;;;;;;;;;;;128.90;2252.80;;;;;;4972575;28;19924;-76
2023/11/23 08:23:03;;;;;;;;;;;153.60;2252.80;;;;;;4968079;28;19917;-75
2023/11/23 08:25:29;;;;;;;;;;;153.60;2252.80;;;;;;4979420;28;19928;-76
2023/11/23 08:27:55;;;;;;;;;;;153.60;2252.80;;;;;;4971452;28;19929;-76
2023/11/23 08:30:21;;;;;;;;;;;128.90;2252.80;;;;;;4977542;28;19906;-76
2023/11/23 08:32:47;;;;;;;;;;;153.70;2252.80;;;;;;4991831;28;20379;-75
2023/11/23 08:35:13;;;;;;;;;;;153.80;2252.80;;;;;;4995258;28;19952;-76
2023/11/23 08:37:38;;;;;;;;;;;153.90;2252.80;;;;;;4965557;28;19912;-76
2023/11/23 08:40:05;;;;;;;;;;;154.10;2252.80;;;;;;4970975;28;19976;-76
2023/11/23 08:42:31;;;;;;;;;;;154.20;2252.80;;;;;;4991673;28;19906;-77
2023/11/23 08:44:57;;;;;;;;;;;154.10;2252.80;;;;;;4969367;28;19906;-76
2023/11/23 08:47:22;;;;;;;;;;;153.90;2252.80;;;;;;4979177;28;20437;-75
2023/11/23 08:49:49;;;;;;;;;;;154.10;2252.80;;;;;;4990758;28;19941;-76
2023/11/23 08:52:15;;;;;;;;;;;154.20;2252.80;;;;;;4994479;28;19948;-76
2023/11/23 08:54:42;;;;;;;;;;;154.10;2252.80;;;;;;4975371;28;19907;-76
2023/11/23 08:57:08;;;;;;;;;;;154.20;2252.80;;;;;;4993408;28;19905;-75
2023/11/23 08:59:37;;;;;;;;;;;154.30;2252.80;;;;;;4992536;28;19937;-76
2023/11/23 09:02:05;;;;;;;;;;;154.50;2252.80;;;;;;4984911;28;20025;-75
2023/11/23 09:04:34;;;;;;;;;;;154.40;2252.80;;;;;;4991706;28;19906;-76
2023/11/23 09:07:00;;;;;;;;;;;154.20;2252.80;;;;;;4989904;28;19906;-76
2023/11/23 09:09:25;;;;;;;;;;;154.20;2252.80;;;;;;4988561;28;19916;-74
2023/11/23 09:11:51;;;;;;;;;;;154.40;2252.80;;;;;;4987161;28;19906;-77
2023/11/23 09:14:17;;;;;;;;;;;154.30;2252.80;;;;;;4977350;28;20012;-77
2023/11/23 09:16:44;;;;;;;;;;;154.40;2252.80;;;;;;4969145;28;19905;-77
2023/11/23 09:19:09;;;;;;;;;;;154.10;2252.80;;;;;;4965025;28;19917;-77
2023/11/23 09:21:35;;;;;;;;;;;154.40;2252.80;;;;;;4967834;28;20276;-77
2023/11/23 09:24:02;;;;;;;;;;;154.50;2252.80;;;;;;4973889;28;20357;-78
2023/11/23 09:26:28;;;;;;;;;;;179.20;2252.80;;;;;;4969137;28;19929;-75
2023/11/23 09:28:53;;;;;;;;;;;179.20;2252.80;;;;;;4974470;28;19947;-77
2023/11/23 09:31:19;;;;;;;;;;;179.50;2252.80;;;;;;4966320;28;19948;-75
2023/11/23 09:33:45;;;;;;;;;;;179.30;2252.80;;;;;;4961163;28;19910;-76
2023/11/23 09:36:11;;;;;;;;;;;179.50;2252.80;;;;;;4971310;28;19916;-77
2023/11/23 09:38:37;;;;;;;;;;;179.60;2252.80;;;;;;4968821;28;19953;-76
2023/11/23 09:41:06;;;;;;;;;;;179.40;2252.80;;;;;;4974228;28;19950;-74
2023/11/23 09:43:32;;;;;;;;;;;179.60;2252.80;;;;;;4974384;28;19906;-75
2023/11/23 09:45:58;;;;;;;;;;;179.70;2252.80;;;;;;4970742;28;19906;-75
2023/11/23 09:48:27;;;;;;;;;;;179.80;2252.80;;;;;;4964895;28;19906;-74
2023/11/23 09:50:53;;;;;;;;;;;179.70;2252.80;;;;;;4973453;28;19914;-76
2023/11/23 09:53:19;;;;;;;;;;;179.70;2252.80;;;;;;4970378;28;19917;-78
2023/11/23 09:55:45;;;;;;;;;;;179.90;2252.80;;;;;;4973474;28;19997;-77
2023/11/23 09:58:11;;;;;;;;;;;179.90;2252.80;;;;;;4972908;28;19906;-79
2023/11/23 10:00:36;;;;;;;;;;;179.90;2252.80;;;;;;4969980;28;19922;-76
2023/11/23 10:03:06;;;;;;;;;;;179.90;2252.80;;;;;;4970105;28;19907;-78
2023/11/23 10:05:33;;;;;;;;;;;180.10;2252.80;;;;;;4985799;28;19930;-78
2023/11/23 10:07:58;;;;;;;;;;;180.10;2252.80;;;;;;4959080;28;20284;-78
2023/11/23 10:10:26;;;;;;;;;;;180.10;2252.80;;;;;;4973958;28;19906;-76
2023/11/23 10:12:53;;;;;;;;;;;204.90;2252.80;;;;;;4971068;28;19906;-76
2023/11/23 10:15:19;;;;;;;;;;;205.00;2252.80;;;;;;4983163;28;19910;-77
2023/11/23 10:17:44;;;;;;;;;;;205.20;2252.80;;;;;;4972892;28;19910;-77
2023/11/23 10:20:17;;;;;;;;;;;230.40;2252.80;;;;;;4975020;28;19925;-78
2023/11/23 10:22:46;;;;;;;;;;;230.70;2252.80;;;;;;4989358;28;19980;-76
2023/11/23 10:25:22;;;;;;;;;;;230.90;2252.80;;;;;;4989263;28;19925;-75
2023/11/23 10:27:48;;;;;;;;;;;256.00;2252.80;;;;;;4992142;28;19906;-76
2023/11/23 10:30:14;;;;;;;;;;;256.00;2201.60;;;;;;4989853;28;19906;-78
2023/11/23 10:32:40;;;;;;;;;;;256.30;2201.60;;;;;;4987277;28;19914;-75
2023/11/23 10:35:09;;;;;;;;;;;256.40;2201.60;;;;;;4993055;28;19912;-77
2023/11/23 10:37:36;;;;;;;;;;;256.30;2150.40;;;;;;4980801;28;20003;-76
2023/11/23 10:40:05;;;;;;;;;;;256.20;2150.40;;;;;;4985895;28;20375;-76
2023/11/23 10:42:32;;;;;;;;;;;231.30;2176.00;;;;;;4990408;28;19906;-76
2023/11/23 10:44:57;;;;;;;;;;;231.00;2252.80;;;;;;4984278;28;19906;-76
2023/11/23 10:47:24;;;;;;;;;;;230.70;2252.80;;;;;;4988733;28;19953;-76
2023/11/23 10:49:50;;;;;;;;;;;230.80;2252.80;;;;;;4988661;28;19917;-76
2023/11/23 10:52:17;;;;;;;;;;;230.60;2252.80;;;;;;4984599;28;20264;-76
2023/11/23 10:54:42;;;;;;;;;;;230.50;2252.80;;;;;;4994548;28;19959;-75
2023/11/23 10:57:09;;;;;;;;;;;205.70;2252.80;;;;;;4976271;28;20286;-77
2023/11/23 10:59:36;;;;;;;;;;;205.70;2252.80;;;;;;4992415;28;19914;-77
2023/11/23 11:02:02;;;;;;;;;;;205.70;2252.80;;;;;;4971294;28;20001;-77
2023/11/23 11:04:28;;;;;;;;;;;205.70;2252.80;;;;;;4977420;28;19906;-76
2023/11/23 11:06:54;;;;;;;;;;;205.70;2252.80;;;;;;4987988;28;19905;-76
2023/11/23 11:09:23;;;;;;;;;;;205.00;2252.80;;;;;;4980573;28;19906;-77
2023/11/23 11:11:53;;;;;;;;;;;205.00;2252.80;;;;;;4988820;28;20407;-78
2023/11/23 11:14:29;;;;;;;;;;;204.90;2252.80;;;;;;4984644;28;20352;-77
2023/11/23 11:17:04;;;;;;;;;;;180.00;2252.80;;;;;;4991888;28;20000;-76
2023/11/23 11:19:49;;;;;;;;;;;179.80;2252.80;;;;;;4985988;28;19965;-76
2023/11/23 11:22:14;;;;;;;;;;;180.10;2252.80;;;;;;4985755;28;19972;-75
2023/11/23 11:24:41;;;;;;;;;;;180.00;2252.80;;;;;;4990390;28;20418;-77
2023/11/23 11:27:18;;;;;;;;;;;205.20;2252.80;;;;;;4986381;28;19913;-75
2023/11/23 11:29:52;;;;;;;;;;;205.10;2252.80;;;;;;4963474;28;19906;-75
2023/11/23 11:32:20;;;;;;;;;;;205.30;2252.80;;;;;;4967698;28;20275;-75
2023/11/23 11:34:45;;;;;;;;;;;205.30;2252.80;;;;;;4993439;28;19910;-74
2023/11/23 11:37:12;;;;;;;;;;;205.60;2252.80;;;;;;4984838;28;19921;-74
2023/11/23 11:39:39;;;;;;;;;;;205.40;2252.80;;;;;;4973620;28;19920;-75
2023/11/23 11:42:05;;;;;;;;;;;205.30;2252.80;;;;;;4986637;28;19905;-74
2023/11/23 11:44:33;;;;;;;;;;;205.20;2252.80;;;;;;4989161;28;19910;-74
2023/11/23 11:47:03;;;;;;;;;;;205.40;2252.80;;;;;;4981358;28;19906;-75
2023/11/23 11:49:30;;;;;;;;;;;205.60;2252.80;;;;;;4979118;28;19906;-75
2023/11/23 11:51:56;;;;;;;;;;;205.50;2252.80;;;;;;4991956;28;19914;-77
2023/11/23 11:54:22;;;;;;;;;;;205.10;2252.80;;;;;;4959227;28;19914;-78
2023/11/23 11:56:48;;;;;;;;;;;205.30;2252.80;;;;;;4986206;28;19905;-76
2023/11/23 11:59:17;;;;;;;;;;;205.40;2252.80;;;;;;4988302;28;20413;-76
2023/11/23 12:01:43;;;;;;;;;;;205.40;2252.80;;;;;;4973502;28;19921;-75
2023/11/23 12:04:29;;;;;;;;;;;205.20;2252.80;;;;;;4986864;28;19913;-75
2023/11/23 12:06:56;;;;;;;;;;;205.40;2252.80;;;;;;4987786;28;19968;-74
2023/11/23 12:09:23;;;;;;;;;;;205.50;2252.80;;;;;;4985413;28;20599;-75
2023/11/23 12:11:49;;;;;;;;;;;205.50;2252.80;;;;;;4990964;28;19905;-75
2023/11/23 12:14:15;;;;;;;;;;;205.70;2252.80;;;;;;4986424;28;19905;-74
2023/11/23 12:16:41;;;;;;;;;;;205.60;2252.80;;;;;;4974986;28;19906;-74
2023/11/23 12:19:26;;;;;;;;;;;205.50;2252.80;;;;;;4990256;28;19916;-74
2023/11/23 12:21:52;;;;;;;;;;;205.50;2252.80;;;;;;4973407;28;20008;-74
2023/11/23 12:24:18;;;;;;;;;;;205.60;2252.80;;;;;;4992813;28;19905;-74
2023/11/23 12:26:45;;;;;;;;;;;205.20;2252.80;;;;;;4987135;28;19910;-77
2023/11/23 12:29:18;;;;;;;;;;;205.50;2252.80;;;;;;4975726;28;20013;-75
2023/11/23 12:31:44;;;;;;;;;;;205.70;2252.80;;;;;;4981818;28;19913;-74
2023/11/23 12:34:09;;;;;;;;;;;205.60;2252.80;;;;;;4992110;28;19906;-75
2023/11/23 12:36:36;;;;;;;;;;;230.40;2252.80;;;;;;4984519;28;19910;-74
2023/11/23 12:39:04;;;;;;;;;;;230.40;2252.80;;;;;;4989832;28;19917;-75
2023/11/23 12:41:29;;;;;;;;;;;205.60;2252.80;;;;;;4987333;28;19908;-74
2023/11/23 12:43:55;;;;;;;;;;;205.60;2252.80;;;;;;4988911;28;19921;-75
2023/11/23 12:46:20;;;;;;;;;;;205.70;2252.80;;;;;;4989250;28;19906;-73
2023/11/23 12:48:47;;;;;;;;;;;205.70;2252.80;;;;;;4980984;28;19909;-74
2023/11/23 12:51:13;;;;;;;;;;;205.70;2252.80;;;;;;4991446;28;19917;-75
2023/11/23 12:53:39;;;;;;;;;;;230.40;2252.80;;;;;;4990216;28;19910;-75
2023/11/23 12:56:05;;;;;;;;;;;230.50;2252.80;;;;;;4964940;28;19906;-75
2023/11/23 12:58:31;;;;;;;;;;;230.60;2252.80;;;;;;4990440;28;20427;-76
2023/11/23 13:00:56;;;;;;;;;;;230.60;2252.80;;;;;;4993780;28;19918;-75
2023/11/23 13:03:23;;;;;;;;;;;230.60;2252.80;;;;;;4996654;28;19909;-75
2023/11/23 13:05:52;;;;;;;;;;;230.70;2252.80;;;;;;4992607;28;19937;-76
2023/11/23 13:08:19;;;;;;;;;;;230.90;2252.80;;;;;;4991233;28;19905;-75
2023/11/23 13:10:45;;;;;;;;;;;230.80;2252.80;;;;;;4973825;28;19918;-76
2023/11/23 13:13:11;;;;;;;;;;;230.80;2252.80;;;;;;4994305;28;19969;-75
2023/11/23 13:15:36;;;;;;;;;;;230.80;2252.80;;;;;;4982686;28;20352;-75
2023/11/23 13:18:04;;;;;;;;;;;230.60;2252.80;;;;;;4972453;28;19912;-75
2023/11/23 13:20:29;;;;;;;;;;;230.50;2252.80;;;;;;4971555;28;19972;-76
2023/11/23 13:22:55;;;;;;;;;;;230.60;2252.80;;;;;;4993894;28;20114;-76
2023/11/23 13:25:21;;;;;;;;;;;230.70;2252.80;;;;;;4993665;28;19949;-75
2023/11/23 13:27:48;;;;;;;;;;;230.80;2252.80;;;;;;4991176;28;19905;-77
2023/11/23 13:30:14;;;;;;;;;;;230.80;2252.80;;;;;;4971788;28;20390;-76
2023/11/23 13:32:41;;;;;;;;;;;230.80;2252.80;;;;;;4965516;28;19909;-75
2023/11/23 13:35:07;;;;;;;;;;;230.60;2252.80;;;;;;4988200;28;20352;-73
2023/11/23 13:37:33;;;;;;;;;;;230.80;2252.80;;;;;;4986479;28;19913;-76
2023/11/23 13:39:59;;;;;;;;;;;230.80;2252.80;;;;;;4981286;28;20331;-75